Calpine, California
Current Conditions -  °F | °C
As of 6:15 PM on Friday 19 Dec 2014 (Local Time) from KTRK Reporting Station
Drizzle Drizzle  
Wind Chill: 26°   Ceiling: 2400
Heat Index: 32°   Visibility: 5mi
Dew Point: 32°   Wind: 6mph
Humidity: 100%   Direction: 160°SSE
Pressure: 30.13"   Gusts: NA
Location:  39.67°N, 120.44°W
Report Text: KTRK 200215Z AUTO 16005KT 5SM DZ SCT005 BKN024 OVC050 00/00 A3013 RMK AO2
Loading
Personal Weather Stations






























Interactive Weather Map New forecast layout! Learn more

10-Day Weather Forecast

Advertisements
Track Severe Weather on mobile